Time;durP1;ratioP1;P1;durP2;ratioP2;P2;SDS_P1;SDS_P2;PMS_P1;PMS_P2;Temp;Humidity;BMP_temperature;BMP_pressure;BME280_temperature;BME280_humidity;BME280_pressure;Samples;Min_cycle;Max_cycle;Signal;HPM_P1;HPM_P2
2023/08/08 00:00:17;;;;;;;4.40;0.90;;;;;;;13.86;75.98;99104.17;218215;1257;140563;-68
2023/08/08 00:05:43;;;;;;;9.30;3.10;;;;;;;13.79;76.55;99106.43;218415;1257;140437;-68
2023/08/08 00:10:48;;;;;;;2.70;1.70;;;;;;;13.72;76.88;99110.80;217781;1255;140701;-67
2023/08/08 00:15:52;;;;;;;1.70;1.60;;;;;;;13.69;77.30;99104.06;217883;1254;139748;-68
2023/08/08 00:20:57;;;;;;;1.40;0.80;;;;;;;13.66;77.36;99106.84;218133;1255;140540;-67
2023/08/08 00:26:03;;;;;;;1.50;1.40;;;;;;;13.56;77.29;99115.62;218197;1254;141746;-69
2023/08/08 00:31:06;;;;;;;4.50;1.40;;;;;;;13.45;77.45;99124.10;217974;1258;140321;-69
2023/08/08 00:36:10;;;;;;;1.10;1.10;;;;;;;13.38;77.59;99116.34;217886;1254;144356;-68
2023/08/08 00:41:15;;;;;;;2.80;1.70;;;;;;;13.32;77.47;99115.37;219129;1257;141557;-67
2023/08/08 00:46:24;;;;;;;1.50;1.40;;;;;;;13.30;77.55;99119.64;219813;1254;139679;-67
2023/08/08 00:51:29;;;;;;;4.30;1.40;;;;;;;13.27;77.14;99125.32;219292;1254;140693;-66
2023/08/08 00:56:36;;;;;;;1.60;1.10;;;;;;;13.24;77.12;99129.11;220706;1254;139768;-71
2023/08/08 01:01:41;;;;;;;3.90;0.90;;;;;;;13.22;76.95;99135.48;220649;1254;140915;-69
2023/08/08 01:07:09;;;;;;;7.40;1.70;;;;;;;13.20;76.69;99145.06;220656;1257;139896;-69
2023/08/08 01:12:16;;;;;;;2.00;1.50;;;;;;;13.17;76.65;99149.82;219764;1258;141390;-69
2023/08/08 01:17:25;;;;;;;1.80;1.30;;;;;;;13.12;76.49;99147.13;220913;1257;140181;-69
2023/08/08 01:22:42;;;;;;;3.90;1.80;;;;;;;13.06;76.51;99152.99;220678;1254;139950;-70
2023/08/08 01:27:47;;;;;;;1.20;1.10;;;;;;;13.01;76.44;99158.23;218853;1254;140464;-68
2023/08/08 01:32:52;;;;;;;2.30;1.10;;;;;;;12.98;76.48;99160.15;218778;1259;140644;-69
2023/08/08 01:38:06;;;;;;;3.10;1.40;;;;;;;12.95;76.26;99169.39;219134;1254;140036;-69
2023/08/08 01:43:13;;;;;;;3.30;1.40;;;;;;;12.91;76.45;99165.09;218461;1254;139638;-67
2023/08/08 01:48:19;;;;;;;2.00;1.10;;;;;;;12.82;76.40;99165.24;219316;1259;140656;-68
2023/08/08 01:53:23;;;;;;;6.20;3.60;;;;;;;12.77;76.60;99164.42;218047;1258;139997;-68
2023/08/08 01:58:28;;;;;;;2.20;1.00;;;;;;;12.67;76.60;99160.53;217960;1254;139827;-68
2023/08/08 02:03:33;;;;;;;5.40;1.40;;;;;;;12.59;76.66;99161.98;218233;1254;140004;-68
2023/08/08 02:08:39;;;;;;;3.10;1.00;;;;;;;12.54;77.09;99168.66;218323;1258;141360;-67
2023/08/08 02:13:43;;;;;;;4.30;1.30;;;;;;;12.49;76.85;99167.96;218948;1259;140367;-67
2023/08/08 02:18:49;;;;;;;3.30;1.90;;;;;;;12.45;77.13;99177.73;218096;1254;139806;-67
2023/08/08 02:23:53;;;;;;;2.00;1.80;;;;;;;12.42;77.16;99171.08;218399;1254;139663;-68
2023/08/08 02:28:58;;;;;;;2.50;1.60;;;;;;;12.42;77.20;99174.83;218271;1257;139475;-67
2023/08/08 02:34:03;;;;;;;6.60;1.90;;;;;;;12.42;77.35;99185.99;219101;1259;140479;-67
2023/08/08 02:39:09;;;;;;;2.90;1.50;;;;;;;12.43;77.35;99197.07;218594;1259;140630;-67
2023/08/08 02:44:19;;;;;;;2.10;1.10;;;;;;;12.47;77.16;99199.39;219028;1258;139485;-68
2023/08/08 02:49:24;;;;;;;1.50;1.20;;;;;;;12.53;77.21;99202.84;219228;1254;141891;-67
2023/08/08 02:54:29;;;;;;;1.20;1.10;;;;;;;12.57;76.99;99204.23;220357;1257;142301;-68
2023/08/08 02:59:33;;;;;;;4.20;2.20;;;;;;;12.61;77.04;99209.70;220795;1258;139912;-69
2023/08/08 03:04:38;;;;;;;3.30;0.90;;;;;;;12.67;76.81;99213.74;217998;1259;1132235;-67
2023/08/08 03:09:43;;;;;;;1.10;0.90;;;;;;;12.73;76.69;99213.78;219148;1254;139710;-67
2023/08/08 03:14:48;;;;;;;2.30;1.40;;;;;;;12.77;76.47;99215.94;218654;1255;140710;-67
2023/08/08 03:19:53;;;;;;;2.40;1.90;;;;;;;12.82;76.61;99217.94;219401;1254;140438;-67
2023/08/08 03:24:56;;;;;;;5.90;2.60;;;;;;;12.83;76.35;99222.60;218923;1260;140545;-67
2023/08/08 03:30:00;;;;;;;5.60;2.30;;;;;;;12.84;76.36;99233.77;218033;1259;140473;-69
2023/08/08 03:35:06;;;;;;;5.30;2.60;;;;;;;12.88;76.31;99230.73;218243;1254;140906;-69
2023/08/08 03:40:13;;;;;;;2.20;1.40;;;;;;;12.90;76.30;99226.72;219398;1260;140401;-66
2023/08/08 03:45:18;;;;;;;5.40;2.40;;;;;;;12.92;75.94;99230.91;217886;1254;141840;-67
2023/08/08 03:50:22;;;;;;;4.40;1.10;;;;;;;12.91;75.70;99238.88;218135;1260;142124;-69
2023/08/08 03:55:26;;;;;;;2.00;1.60;;;;;;;12.87;75.61;99245.81;217973;1260;139765;-69
2023/08/08 04:00:33;;;;;;;2.50;1.40;;;;;;;12.87;75.74;99252.45;218849;1255;140447;-69
2023/08/08 04:05:39;;;;;;;2.20;1.40;;;;;;;12.87;75.52;99250.62;218134;1255;246137;-69
2023/08/08 04:10:47;;;;;;;4.80;2.10;;;;;;;12.88;75.38;99258.55;218374;1259;140806;-69
2023/08/08 04:15:52;;;;;;;9.30;2.50;;;;;;;12.97;75.16;99260.73;217779;1260;140427;-70
2023/08/08 04:20:56;;;;;;;4.50;2.10;;;;;;;13.06;74.97;99268.64;218103;1254;140286;-69
2023/08/08 04:26:03;;;;;;;2.60;1.60;;;;;;;13.08;74.91;99280.16;219115;1254;140816;-67
2023/08/08 04:31:08;;;;;;;4.30;1.60;;;;;;;13.19;74.75;99287.43;218983;1260;139897;-71
2023/08/08 04:36:13;;;;;;;2.30;1.40;;;;;;;13.27;74.50;99291.95;217756;1254;140549;-71
2023/08/08 04:41:19;;;;;;;2.40;1.50;;;;;;;13.45;74.12;99296.26;217941;1255;139527;-71
2023/08/08 04:46:24;;;;;;;3.90;1.60;;;;;;;13.61;74.09;99297.79;218287;1260;139603;-71
2023/08/08 04:51:29;;;;;;;4.50;2.40;;;;;;;13.59;73.64;99311.43;218034;1254;140595;-69
2023/08/08 04:56:36;;;;;;;2.60;1.30;;;;;;;13.60;73.66;99318.30;220085;1254;140350;-73
2023/08/08 05:01:45;;;;;;;1.80;1.60;;;;;;;13.71;73.47;99327.65;217883;1254;139902;-72
2023/08/08 05:06:49;;;;;;;2.30;1.50;;;;;;;13.83;73.12;99326.70;217884;1257;140321;-69
2023/08/08 05:11:54;;;;;;;3.20;1.60;;;;;;;14.05;72.87;99333.32;218394;1254;141135;-72
2023/08/08 05:17:01;;;;;;;4.40;1.80;;;;;;;14.14;72.68;99336.59;219291;1254;139769;-69
2023/08/08 05:22:06;;;;;;;1.70;1.20;;;;;;;14.70;71.89;99340.80;217884;1259;140113;-68
2023/08/08 05:27:12;;;;;;;1.40;1.00;;;;;;;15.44;70.86;99345.24;218893;1254;142007;-68
2023/08/08 05:32:16;;;;;;;3.20;1.00;;;;;;;15.83;70.36;99353.45;218352;1259;141872;-68
2023/08/08 05:37:22;;;;;;;1.60;1.50;;;;;;;16.27;69.07;99361.95;217862;1254;140152;-69
2023/08/08 05:42:31;;;;;;;2.60;1.50;;;;;;;16.64;68.27;99370.90;218520;1254;141192;-69
2023/08/08 05:47:38;;;;;;;9.50;1.70;;;;;;;17.18;67.04;99377.05;218111;1254;140644;-68
2023/08/08 05:52:42;;;;;;;1.50;1.40;;;;;;;17.26;66.41;99377.34;220663;1254;140933;-70
2023/08/08 05:57:49;;;;;;;4.00;1.80;;;;;;;16.77;66.63;99384.11;219442;1254;139678;-67
2023/08/08 06:02:54;;;;;;;2.90;1.90;;;;;;;16.52;66.54;99385.81;219190;1254;141781;-69
2023/08/08 06:07:59;;;;;;;2.80;1.60;;;;;;;16.46;66.83;99386.79;218553;1254;140491;-69
2023/08/08 06:13:03;;;;;;;3.40;1.70;;;;;;;16.44;66.51;99387.17;217955;1254;139675;-70
2023/08/08 06:18:09;;;;;;;3.20;1.40;;;;;;;16.35;66.38;99390.04;218873;1254;140869;-69
2023/08/08 06:23:15;;;;;;;2.70;1.10;;;;;;;16.34;66.18;99383.91;219453;1254;141102;-68
2023/08/08 06:28:20;;;;;;;5.10;2.30;;;;;;;16.53;66.22;99382.37;219160;1254;139788;-68
2023/08/08 06:33:24;;;;;;;3.60;1.90;;;;;;;16.81;65.83;99389.08;218840;1259;139505;-68
2023/08/08 06:38:33;;;;;;;5.70;1.80;;;;;;;16.99;65.51;99394.08;219001;1254;140159;-69
2023/08/08 06:43:38;;;;;;;4.90;1.70;;;;;;;17.18;65.02;99397.21;219904;1254;142403;-70
2023/08/08 06:48:47;;;;;;;6.10;1.70;;;;;;;17.28;64.53;99397.58;218518;1254;139951;-69
2023/08/08 06:53:54;;;;;;;4.30;1.40;;;;;;;17.48;64.09;99391.09;218349;1254;139563;-68
2023/08/08 06:58:59;;;;;;;1.50;1.00;;;;;;;17.68;64.03;99397.48;220807;1254;140868;-68
2023/08/08 07:04:04;;;;;;;4.70;1.80;;;;;;;18.13;63.06;99398.27;220087;1254;139728;-67
2023/08/08 07:09:11;;;;;;;1.90;1.50;;;;;;;19.11;62.75;99397.02;220836;1254;139812;-69
2023/08/08 07:14:16;;;;;;;1.40;1.20;;;;;;;20.61;61.11;99401.73;218057;1254;139829;-70
2023/08/08 07:19:21;;;;;;;1.90;1.30;;;;;;;21.58;59.22;99406.52;220035;1254;140040;-70
2023/08/08 07:24:28;;;;;;;1.50;1.20;;;;;;;22.09;57.81;99402.02;218450;1254;138877;-69
2023/08/08 07:29:33;;;;;;;5.00;1.50;;;;;;;22.54;56.42;99396.10;219503;1254;138752;-68
2023/08/08 07:34:38;;;;;;;2.90;1.10;;;;;;;22.75;55.61;99405.02;218883;1254;139417;-68
2023/08/08 07:39:44;;;;;;;4.30;1.50;;;;;;;22.82;54.07;99408.43;217984;1254;140182;-67
2023/08/08 07:44:49;;;;;;;1.40;0.90;;;;;;;22.96;53.62;99404.82;218734;1254;140458;-71
2023/08/08 07:49:55;;;;;;;1.10;0.90;;;;;;;23.19;53.04;99414.25;218710;1258;138802;-71
2023/08/08 07:55:00;;;;;;;0.80;0.80;;;;;;;23.18;52.30;99415.37;218503;1254;139171;-71
2023/08/08 08:00:12;;;;;;;1.20;1.00;;;;;;;23.05;50.92;99412.69;219767;1254;139310;-74
2023/08/08 08:05:18;;;;;;;4.10;1.30;;;;;;;22.90;50.86;99408.33;217913;1259;141161;-70
2023/08/08 08:10:22;;;;;;;2.50;1.10;;;;;;;22.52;50.05;99405.48;218651;1259;140662;-73
2023/08/08 08:15:28;;;;;;;3.60;1.50;;;;;;;22.38;50.43;99406.98;217618;1259;139205;-71
2023/08/08 08:20:33;;;;;;;3.10;0.90;;;;;;;22.39;49.93;99406.85;219031;1254;139444;-67
2023/08/08 08:25:39;;;;;;;1.00;0.80;;;;;;;22.11;49.41;99403.17;218930;1254;140651;-68
2023/08/08 08:30:43;;;;;;;5.20;0.90;;;;;;;22.06;49.74;99404.67;220071;1256;139880;-71
2023/08/08 08:35:48;;;;;;;1.10;0.90;;;;;;;22.14;49.27;99404.36;219046;1257;139460;-68
2023/08/08 08:40:55;;;;;;;1.40;0.90;;;;;;;22.18;49.24;99402.13;219772;1256;139405;-67
2023/08/08 08:46:02;;;;;;;1.80;1.00;;;;;;;22.25;48.90;99397.85;220520;1256;138938;-66
2023/08/08 08:51:07;;;;;;;2.10;1.20;;;;;;;22.38;48.99;99402.94;220213;1256;139797;-68
2023/08/08 08:56:16;;;;;;;3.60;1.20;;;;;;;22.14;47.43;99404.64;219565;1256;141097;-70
2023/08/08 09:01:23;;;;;;;3.10;1.00;;;;;;;21.95;47.63;99396.85;218898;1256;138927;-68
2023/08/08 09:06:30;;;;;;;3.10;1.70;;;;;;;21.79;47.10;99392.30;219039;1257;139617;-67
2023/08/08 09:11:35;;;;;;;1.50;0.80;;;;;;;21.82;47.67;99392.94;218500;1256;140202;-69
2023/08/08 09:16:42;;;;;;;0.60;0.40;;;;;;;22.16;47.51;99398.67;217722;1257;140448;-68
2023/08/08 09:21:47;;;;;;;0.80;0.80;;;;;;;22.14;46.98;99402.79;218652;1257;139548;-68
2023/08/08 09:26:55;;;;;;;0.80;0.80;;;;;;;22.02;46.76;99404.88;217760;1256;139211;-68
2023/08/08 09:32:04;;;;;;;2.10;0.80;;;;;;;21.81;46.43;99408.55;219024;1256;139467;-68
2023/08/08 09:37:10;;;;;;;2.30;0.90;;;;;;;21.79;46.58;99411.83;217928;1255;139300;-67
2023/08/08 09:42:15;;;;;;;3.60;1.10;;;;;;;21.97;46.18;99412.59;218298;1257;138280;-70
2023/08/08 09:47:22;;;;;;;1.30;0.80;;;;;;;21.97;46.28;99418.60;218873;1256;139302;-70
2023/08/08 09:52:30;;;;;;;4.10;1.30;;;;;;;21.61;45.88;99409.84;217911;1256;138886;-68
2023/08/08 09:57:35;;;;;;;1.30;0.80;;;;;;;21.73;46.13;99407.70;218127;1259;139097;-68
2023/08/08 10:02:40;;;;;;;1.80;1.30;;;;;;;21.92;46.03;99410.67;218799;1259;139620;-68
2023/08/08 10:07:45;;;;;;;1.30;1.20;;;;;;;22.14;46.22;99408.27;218729;1257;140038;-68
2023/08/08 10:12:52;;;;;;;1.00;0.80;;;;;;;22.32;46.35;99410.14;217828;1256;138889;-68
2023/08/08 10:17:57;;;;;;;;;;;;;;;22.46;46.20;99405.41;218736;1256;159301;-68
2023/08/08 10:23:02;;;;;;;2.00;1.50;;;;;;;22.69;46.23;99406.14;219188;1256;126996;-69
2023/08/08 10:28:14;;;;;;;4.40;1.00;;;;;;;22.84;45.53;99398.96;217613;1257;141229;-68
2023/08/08 10:34:00;;;;;;;0.70;0.70;;;;;;;22.34;44.47;99405.52;218467;1256;138985;-68
2023/08/08 10:39:16;;;;;;;3.00;0.90;;;;;;;22.12;44.53;99401.13;218408;1256;140901;-68
2023/08/08 10:44:24;;;;;;;3.60;1.30;;;;;;;22.45;44.48;99398.95;219720;1256;150992;-72
2023/08/08 10:49:30;;;;;;;0.80;0.80;;;;;;;22.74;44.75;99395.66;220281;1256;139260;-72
2023/08/08 10:54:35;;;;;;;1.90;1.30;;;;;;;22.75;44.24;99403.59;219499;1256;139208;-70
2023/08/08 10:59:40;;;;;;;5.60;1.20;;;;;;;22.71;43.82;99404.88;219744;1256;139370;-70
2023/08/08 11:04:45;;;;;;;0.60;0.60;;;;;;;22.63;43.37;99398.81;220055;1256;140300;-70
2023/08/08 11:09:50;;;;;;;0.80;0.60;;;;;;;22.33;43.22;99406.27;218094;1255;140865;-70
2023/08/08 11:14:56;;;;;;;0.80;0.80;;;;;;;22.03;43.45;99409.93;218381;1257;139622;-70
2023/08/08 11:20:01;;;;;;;0.80;0.70;;;;;;;21.82;43.13;99409.27;218110;1256;140237;-72
2023/08/08 11:25:08;;;;;;;1.80;1.20;;;;;;;21.51;43.40;99407.95;217505;1257;140283;-71
2023/08/08 11:30:14;;;;;;;3.70;1.20;;;;;;;21.33;43.81;99410.15;218689;1256;139529;-68
2023/08/08 11:35:22;;;;;;;10.60;6.50;;;;;;;21.33;44.09;99415.70;217689;1257;139157;-69
2023/08/08 11:40:29;;;;;;;16.60;10.10;;;;;;;21.51;44.00;99410.61;218784;1256;138533;-70
2023/08/08 11:45:35;;;;;;;9.80;6.20;;;;;;;21.62;43.85;99410.98;218281;1256;139275;-72
2023/08/08 11:50:42;;;;;;;14.20;10.40;;;;;;;21.44;43.63;99409.66;218371;1257;139296;-71
2023/08/08 11:55:46;;;;;;;1.80;1.30;;;;;;;21.41;43.98;99417.47;218028;1257;140603;-70
2023/08/08 12:00:54;;;;;;;5.00;1.90;;;;;;;21.55;44.29;99421.67;218611;1256;139134;-71
2023/08/08 12:05:59;;;;;;;1.00;0.80;;;;;;;21.93;43.93;99419.10;218514;1255;139077;-72
2023/08/08 12:11:05;;;;;;;9.30;6.60;;;;;;;22.01;43.46;99422.98;219119;1256;139879;-69
2023/08/08 12:16:12;;;;;;;3.80;2.60;;;;;;;21.84;43.50;99420.74;217632;1256;139998;-69
2023/08/08 12:21:21;;;;;;;16.30;14.80;;;;;;;21.50;43.38;99417.91;219832;1257;140643;-70
2023/08/08 12:26:25;;;;;;;33.10;27.80;;;;;;;21.50;44.22;99417.63;219853;1255;139748;-71
2023/08/08 12:31:34;;;;;;;15.60;14.10;;;;;;;21.49;44.29;99420.11;220393;1256;139607;-71
2023/08/08 12:36:39;;;;;;;19.60;13.30;;;;;;;21.68;43.80;99412.34;220362;1256;140786;-70
2023/08/08 12:41:46;;;;;;;38.40;34.90;;;;;;;21.69;43.71;99413.09;220494;1256;140669;-69
2023/08/08 12:46:51;;;;;;;16.70;15.10;;;;;;;21.41;43.47;99413.84;220476;1256;140088;-70
2023/08/08 12:51:57;;;;;;;5.50;5.00;;;;;;;21.27;43.79;99410.60;219870;1256;140237;-69
2023/08/08 12:57:03;;;;;;;15.60;14.00;;;;;;;21.45;44.01;99412.35;220337;1256;139704;-70
2023/08/08 13:02:10;;;;;;;8.80;7.30;;;;;;;21.76;43.92;99406.13;218562;1256;141125;-69
2023/08/08 13:07:19;;;;;;;19.70;12.80;;;;;;;21.84;43.86;99405.87;217790;1259;138896;-69
2023/08/08 13:12:24;;;;;;;20.50;18.70;;;;;;;21.76;43.70;99405.71;219793;1256;140271;-69
2023/08/08 13:17:29;;;;;;;4.00;2.20;;;;;;;21.70;43.73;99407.46;218890;1259;141389;-68
2023/08/08 13:22:34;;;;;;;2.20;1.60;;;;;;;21.62;43.79;99406.88;218742;1259;141941;-69
2023/08/08 13:27:42;;;;;;;9.90;9.10;;;;;;;21.53;43.79;99402.87;217559;1259;139482;-69
2023/08/08 13:32:49;;;;;;;13.90;6.40;;;;;;;21.49;43.92;99406.48;218948;1259;138904;-70
2023/08/08 13:37:54;;;;;;;24.20;18.60;;;;;;;21.37;44.04;99413.95;218013;1259;139252;-69
2023/08/08 13:43:00;;;;;;;6.40;4.10;;;;;;;21.17;44.17;99416.66;217880;1257;140442;-69
2023/08/08 13:48:06;;;;;;;38.40;34.90;;;;;;;20.98;44.26;99417.68;217593;1257;138865;-69
2023/08/08 13:53:12;;;;;;;4.20;3.80;;;;;;;20.68;43.99;99425.40;217635;1257;139670;-69
2023/08/08 13:58:21;;;;;;;;;;;;;;;20.33;44.54;99471.45;219118;1256;139866;-68
2023/08/08 14:03:29;;;;;;;12.90;5.60;;;;;;;19.57;46.98;99478.13;218868;1257;126074;-69
2023/08/08 14:08:35;;;;;;;2.10;1.20;;;;;;;19.16;49.54;99449.95;218914;1256;139772;-69
2023/08/08 14:13:42;;;;;;;3.80;3.40;;;;;;;19.26;51.34;99437.73;218812;1257;140176;-69
2023/08/08 14:18:48;;;;;;;7.90;7.20;;;;;;;19.43;51.95;99441.66;219042;1258;139164;-69
2023/08/08 14:23:56;;;;;;;4.40;4.00;;;;;;;19.53;52.88;99435.34;219408;1257;141482;-69
2023/08/08 14:29:01;;;;;;;1.50;1.40;;;;;;;19.51;53.99;99431.54;219055;1257;139085;-69
2023/08/08 14:34:10;;;;;;;1.80;1.10;;;;;;;19.46;54.64;99431.62;220417;1256;139826;-70
2023/08/08 14:39:14;;;;;;;4.00;3.40;;;;;;;19.38;55.10;99427.77;220444;1257;139900;-69
2023/08/08 14:44:19;;;;;;;15.20;12.90;;;;;;;19.23;55.99;99429.19;220339;1257;150751;-69
2023/08/08 14:49:27;;;;;;;79.10;64.20;;;;;;;19.15;56.96;99427.82;220445;1259;141287;-69
2023/08/08 14:54:34;;;;;;;6.70;5.90;;;;;;;19.47;57.35;99430.72;219794;1256;140026;-69
2023/08/08 14:59:40;;;;;;;16.60;15.10;;;;;;;19.54;56.89;99434.64;218554;1257;140164;-69
2023/08/08 15:04:45;;;;;;;7.40;6.30;;;;;;;19.51;56.56;99434.84;217038;1257;994943;-69
2023/08/08 15:09:54;;;;;;;4.20;3.80;;;;;;;19.57;56.40;99432.45;218917;1257;139947;-68
2023/08/08 15:15:00;;;;;;;4.40;3.70;;;;;;;19.70;56.41;99436.39;218325;1258;139143;-69
2023/08/08 15:20:06;;;;;;;8.30;7.60;;;;;;;19.92;56.21;99431.81;217862;1257;140001;-70
2023/08/08 15:25:14;;;;;;;36.80;25.20;;;;;;;19.78;55.43;99423.73;218093;1257;140070;-68
2023/08/08 15:30:20;;;;;;;117.40;96.20;;;;;;;19.62;55.32;99423.58;218147;1257;139470;-69
2023/08/08 15:35:24;;;;;;;10.60;9.50;;;;;;;19.73;54.86;99420.05;217559;1257;140633;-69
2023/08/08 15:40:32;;;;;;;4.20;2.80;;;;;;;19.98;54.51;99415.77;218195;1256;139388;-69
2023/08/08 15:45:39;;;;;;;5.80;1.80;;;;;;;20.03;53.31;99409.73;217758;1256;139917;-69
2023/08/08 15:50:46;;;;;;;1.70;1.60;;;;;;;19.88;52.60;99408.17;217962;1259;140908;-70
2023/08/08 15:55:51;;;;;;;1.60;1.40;;;;;;;19.60;52.11;99404.96;217980;1256;139937;-70
2023/08/08 16:00:56;;;;;;;2.60;1.40;;;;;;;19.57;51.82;99401.74;217418;1257;139698;-72
2023/08/08 16:06:00;;;;;;;1.90;1.70;;;;;;;19.68;51.44;99390.52;217418;1259;139669;-70
2023/08/08 16:11:05;;;;;;;1.90;1.80;;;;;;;19.55;50.83;99393.44;217491;1259;140824;-70
2023/08/08 16:16:09;;;;;;;3.00;1.70;;;;;;;19.25;50.49;99396.88;217314;1259;139918;-70
2023/08/08 16:21:16;;;;;;;2.40;1.70;;;;;;;19.05;50.52;99394.45;218030;1259;142468;-69
2023/08/08 16:26:22;;;;;;;2.50;2.30;;;;;;;18.90;50.55;99397.27;220345;1256;139606;-70
2023/08/08 16:31:27;;;;;;;12.40;4.50;;;;;;;18.82;50.33;99407.13;218010;1259;139401;-71
2023/08/08 16:36:36;;;;;;;1.30;1.20;;;;;;;18.78;50.38;99416.54;220429;1257;140102;-71
2023/08/08 16:41:44;;;;;;;1.40;1.30;;;;;;;18.83;50.28;99419.75;220446;1257;139471;-70
2023/08/08 16:46:50;;;;;;;4.10;2.60;;;;;;;18.94;50.09;99412.38;220557;1257;140770;-72
2023/08/08 16:52:00;;;;;;;3.50;3.10;;;;;;;18.92;49.58;99421.66;220480;1256;139421;-69
2023/08/08 16:57:04;;;;;;;4.30;1.90;;;;;;;18.84;49.44;99434.27;220322;1256;139846;-68
2023/08/08 17:02:10;;;;;;;4.20;3.60;;;;;;;18.76;49.46;99429.96;217485;1258;139286;-69
2023/08/08 17:07:13;;;;;;;36.00;32.30;;;;;;;18.69;49.39;99429.80;219938;1257;139090;-69
2023/08/08 17:12:17;;;;;;;3.10;2.90;;;;;;;18.65;49.48;99432.04;217541;1259;140720;-68
2023/08/08 17:17:25;;;;;;;4.10;3.60;;;;;;;18.67;49.37;99436.98;218997;1257;138737;-68
2023/08/08 17:22:33;;;;;;;3.50;2.80;;;;;;;18.62;49.32;99436.91;220287;1258;138934;-70
2023/08/08 17:27:42;;;;;;;16.40;3.40;;;;;;;18.53;49.47;99440.69;218178;1259;139002;-68
2023/08/08 17:33:04;;;;;;;2.10;1.80;;;;;;;18.41;49.54;99443.50;218762;1257;139409;-70
2023/08/08 17:38:21;;;;;;;2.50;1.90;;;;;;;18.30;49.89;99449.09;217711;1256;139677;-68
2023/08/08 17:43:28;;;;;;;4.60;2.80;;;;;;;18.20;50.30;99450.23;217492;1257;140068;-71
2023/08/08 17:48:35;;;;;;;3.30;2.00;;;;;;;18.11;50.61;99445.19;219237;1257;140731;-70
2023/08/08 17:53:42;;;;;;;2.80;2.20;;;;;;;18.03;50.96;99447.20;219020;1257;139831;-68
2023/08/08 17:58:48;;;;;;;3.70;2.70;;;;;;;17.90;51.14;99446.88;217722;1257;139006;-71
2023/08/08 18:03:55;;;;;;;2.10;1.60;;;;;;;17.75;51.47;99441.95;218606;1257;140761;-68
2023/08/08 18:09:01;;;;;;;;;;;;;;;17.64;51.77;99441.16;217334;1258;140569;-75
2023/08/08 18:14:09;;;;;;;7.50;3.70;;;;;;;17.53;52.09;99437.12;219209;1259;125817;-72
2023/08/08 18:19:18;;;;;;;7.50;2.40;;;;;;;17.45;52.29;99437.20;217425;1259;139141;-72
2023/08/08 18:24:30;;;;;;;5.30;3.30;;;;;;;17.42;52.42;99443.83;220225;1258;140856;-69
2023/08/08 18:29:39;;;;;;;6.90;3.40;;;;;;;17.36;52.51;99452.40;219137;1257;139487;-70
2023/08/08 18:34:44;;;;;;;5.00;2.80;;;;;;;17.27;52.63;99457.94;218586;1259;139980;-69
2023/08/08 18:39:50;;;;;;;13.20;6.80;;;;;;;17.18;52.68;99465.66;220493;1259;140139;-68
2023/08/08 18:44:58;;;;;;;10.80;6.90;;;;;;;17.09;52.77;99476.92;220389;1257;140688;-71
2023/08/08 18:50:03;;;;;;;13.30;8.50;;;;;;;17.04;52.77;99481.05;220278;1258;139903;-72
2023/08/08 18:55:08;;;;;;;7.90;5.50;;;;;;;17.05;52.85;99479.42;220476;1256;139673;-69
2023/08/08 19:00:14;;;;;;;6.70;4.50;;;;;;;17.06;53.06;99480.61;219880;1256;138934;-71
2023/08/08 19:05:23;;;;;;;15.80;9.80;;;;;;;17.04;53.09;99482.40;218800;1259;139306;-71
2023/08/08 19:10:28;;;;;;;5.90;2.80;;;;;;;16.99;53.30;99485.20;217977;1259;139688;-67
2023/08/08 19:15:37;;;;;;;236.40;28.10;;;;;;;16.92;53.62;99485.24;219380;1257;139067;-68
2023/08/08 19:20:42;;;;;;;26.70;16.70;;;;;;;16.84;54.15;99484.67;219187;1257;140220;-67
2023/08/08 19:25:47;;;;;;;17.20;9.70;;;;;;;16.75;54.48;99476.58;218176;1257;141547;-73
2023/08/08 19:30:54;;;;;;;10.50;7.20;;;;;;;16.68;54.73;99476.36;217562;1257;139806;-72
2023/08/08 19:36:01;;;;;;;1.90;1.70;;;;;;;16.58;55.46;99469.39;218123;1259;140254;-74
2023/08/08 19:41:08;;;;;;;2.30;2.00;;;;;;;16.42;56.03;99474.52;218684;1259;139199;-75
2023/08/08 19:46:16;;;;;;;1.90;1.50;;;;;;;16.29;57.11;99471.63;217621;1257;139589;-70
2023/08/08 19:51:22;;;;;;;9.20;3.50;;;;;;;16.21;57.93;99465.17;218218;1259;138868;-72
2023/08/08 19:56:28;;;;;;;2.40;2.20;;;;;;;16.10;58.40;99456.75;218355;1257;139547;-68
2023/08/08 20:01:35;;;;;;;4.60;3.20;;;;;;;15.97;59.15;99455.14;218101;1259;139667;-68
2023/08/08 20:06:42;;;;;;;2.10;1.90;;;;;;;15.90;60.21;99452.01;218354;1259;139349;-66
2023/08/08 20:11:47;;;;;;;47.00;4.40;;;;;;;15.80;60.92;99461.63;219447;1257;139178;-71
2023/08/08 20:16:52;;;;;;;2.70;2.00;;;;;;;15.76;61.50;99473.73;220011;1259;140077;-67
2023/08/08 20:21:57;;;;;;;11.80;2.50;;;;;;;15.76;61.80;99498.56;219212;1257;139821;-69
2023/08/08 20:27:08;;;;;;;5.00;2.20;;;;;;;15.76;61.19;99547.10;220256;1257;142065;-69
2023/08/08 20:32:20;;;;;;;2.30;1.60;;;;;;;15.70;60.56;99570.16;220054;1259;141048;-69
2023/08/08 20:37:28;;;;;;;2.00;1.60;;;;;;;15.53;61.05;99575.55;219479;1259;140170;-69
2023/08/08 20:42:36;;;;;;;5.20;1.90;;;;;;;15.28;62.28;99579.59;220198;1257;139999;-69
2023/08/08 20:47:47;;;;;;;2.40;1.80;;;;;;;15.05;63.62;99585.06;220406;1256;140621;-67
2023/08/08 20:52:58;;;;;;;1.80;1.70;;;;;;;14.87;64.40;99588.43;220147;1258;140766;-67
2023/08/08 20:58:07;;;;;;;2.30;2.10;;;;;;;14.70;65.00;99577.02;219434;1259;139944;-68
2023/08/08 21:03:16;;;;;;;2.00;1.90;;;;;;;14.57;65.75;99567.02;219588;1258;140835;-67
2023/08/08 21:08:38;;;;;;;1.30;1.20;;;;;;;14.39;66.39;99556.48;217652;1259;140249;-68
2023/08/08 21:14:04;;;;;;;2.00;1.90;;;;;;;14.25;67.12;99536.86;218320;1258;139675;-69
2023/08/08 21:19:10;;;;;;;;;;;;;;;14.04;67.59;99515.77;218634;1256;140593;-69
2023/08/08 21:24:24;;;;;;;1.90;1.70;;;;;;;13.79;68.52;99504.36;219176;1257;127512;-69
2023/08/08 21:29:32;;;;;;;1.20;1.10;;;;;;;13.76;69.26;99523.80;218564;1257;140144;-69
2023/08/08 21:34:38;;;;;;;3.70;2.00;;;;;;;13.63;69.67;99522.50;218135;1257;139750;-71
2023/08/08 21:39:44;;;;;;;2.40;2.20;;;;;;;13.47;70.38;99517.64;218564;1258;139955;-71
2023/08/08 21:44:50;;;;;;;1.30;1.10;;;;;;;13.30;71.01;99505.65;218373;1259;140002;-68
2023/08/08 21:49:55;;;;;;;2.00;2.00;;;;;;;13.17;71.66;99499.12;218606;1258;140576;-67
2023/08/08 21:55:00;;;;;;;1.60;1.50;;;;;;;13.12;71.98;99498.55;218084;1260;140204;-69
2023/08/08 22:00:13;;;;;;;1.80;1.30;;;;;;;13.05;72.58;99496.55;218216;1258;140795;-69
2023/08/08 22:05:19;;;;;;;1.60;1.50;;;;;;;12.97;72.98;99494.41;219514;1255;141248;-67
2023/08/08 22:10:23;;;;;;;1.80;1.70;;;;;;;12.96;73.31;99497.98;218207;1260;139961;-70
2023/08/08 22:15:28;;;;;;;1.40;1.30;;;;;;;12.92;73.77;99494.04;218935;1257;140015;-69
2023/08/08 22:20:33;;;;;;;3.20;1.20;;;;;;;12.89;74.30;99492.73;218857;1257;140188;-70
2023/08/08 22:25:38;;;;;;;2.30;1.50;;;;;;;12.88;74.58;99484.70;220428;1257;140242;-69
2023/08/08 22:30:43;;;;;;;2.30;0.90;;;;;;;12.86;74.98;99487.46;220419;1259;140027;-69
2023/08/08 22:35:47;;;;;;;1.70;1.40;;;;;;;12.84;74.96;99485.20;220490;1257;139661;-70
2023/08/08 22:40:51;;;;;;;1.70;1.60;;;;;;;12.81;75.24;99487.82;220437;1256;139331;-69
2023/08/08 22:45:55;;;;;;;1.80;1.70;;;;;;;12.77;75.39;99489.28;219594;1256;139946;-69
2023/08/08 22:51:00;;;;;;;1.60;1.40;;;;;;;12.77;75.57;99492.23;219519;1257;140894;-69
2023/08/08 22:56:05;;;;;;;2.40;1.50;;;;;;;12.83;75.83;99493.29;218238;1257;140254;-71
2023/08/08 23:01:10;;;;;;;1.40;1.30;;;;;;;12.93;76.30;99503.52;217675;1257;139737;-70
2023/08/08 23:06:16;;;;;;;7.10;2.20;;;;;;;12.92;76.31;99510.75;219673;1260;141479;-70
2023/08/08 23:11:21;;;;;;;3.00;1.70;;;;;;;12.94;76.43;99510.91;217754;1257;140418;-70
2023/08/08 23:16:25;;;;;;;2.60;1.50;;;;;;;12.98;76.83;99510.68;218845;1255;141803;-70
2023/08/08 23:21:31;;;;;;;2.20;1.60;;;;;;;12.96;77.01;99506.06;218663;1257;140630;-68
2023/08/08 23:26:38;;;;;;;1.30;1.30;;;;;;;12.93;76.98;99504.33;218222;1256;140438;-69